createdAt,value
2023-06-30T00:01:59.750Z,4.10
2023-06-30T00:04:31.766Z,4.50
2023-06-30T00:07:15.888Z,4.10
2023-06-30T00:09:46.009Z,4.30
2023-06-30T00:12:13.853Z,4.50
2023-06-30T00:14:44.389Z,4.70
2023-06-30T00:17:15.228Z,4.70
2023-06-30T00:19:46.159Z,5.10
2023-06-30T00:22:14.041Z,4.80
2023-06-30T00:24:42.214Z,4.70
2023-06-30T00:27:10.104Z,4.90
2023-06-30T00:29:37.940Z,4.80
2023-06-30T00:32:11.258Z,4.70
2023-06-30T00:34:39.006Z,5.00
2023-06-30T00:37:08.627Z,5.10
2023-06-30T00:39:36.374Z,5.30
2023-06-30T00:42:04.975Z,5.50
2023-06-30T00:44:33.952Z,5.50
2023-06-30T00:47:13.147Z,5.70
2023-06-30T00:49:45.692Z,5.40
2023-06-30T00:52:13.641Z,5.40
2023-06-30T00:54:47.132Z,5.90
2023-06-30T00:57:21.965Z,5.80
2023-06-30T00:59:50.137Z,6.00
2023-06-30T01:02:26.036Z,6.00
2023-06-30T01:05:17.941Z,5.70
2023-06-30T01:07:52.445Z,5.60
2023-06-30T01:10:22.983Z,5.80
2023-06-30T01:12:51.167Z,6.10
2023-06-30T01:15:19.055Z,5.50
2023-06-30T01:17:53.894Z,5.70
2023-06-30T01:20:22.455Z,5.40
2023-06-30T01:22:50.941Z,5.40
2023-06-30T01:25:20.838Z,5.10
2023-06-30T01:27:54.559Z,5.20
2023-06-30T01:30:34.354Z,5.80
2023-06-30T01:33:10.099Z,5.30
2023-06-30T01:35:43.117Z,5.60
2023-06-30T01:40:48.292Z,5.00
2023-06-30T01:43:19.253Z,5.40
2023-06-30T01:45:51.606Z,6.10
2023-06-30T01:48:25.225Z,5.70
2023-06-30T01:50:54.293Z,5.90
2023-06-30T01:53:25.662Z,5.40
2023-06-30T01:55:55.792Z,5.50
2023-06-30T01:58:27.023Z,5.40
2023-06-30T02:00:56.631Z,5.40
2023-06-30T02:03:24.783Z,5.80
2023-06-30T02:05:57.382Z,5.70
2023-06-30T02:08:25.152Z,5.70
2023-06-30T02:10:55.396Z,5.70
2023-06-30T02:13:23.550Z,5.80
2023-06-30T02:16:05.677Z,5.30
2023-06-30T02:18:40.990Z,5.30
2023-06-30T02:21:09.211Z,5.90
2023-06-30T02:23:37.033Z,5.70
2023-06-30T02:26:04.902Z,6.20
2023-06-30T02:28:35.741Z,6.40
2023-06-30T02:31:04.255Z,6.20
2023-06-30T02:33:32.500Z,6.10
2023-06-30T02:36:00.387Z,6.30
2023-06-30T02:38:30.282Z,6.40
2023-06-30T02:40:58.664Z,5.70
2023-06-30T02:43:27.995Z,5.90
2023-06-30T02:45:56.105Z,6.10
2023-06-30T02:48:24.522Z,6.20
2023-06-30T02:50:52.418Z,6.00
2023-06-30T02:53:25.275Z,6.10
2023-06-30T02:55:53.138Z,6.20
2023-06-30T02:58:23.907Z,5.70
2023-06-30T03:00:56.618Z,5.20
2023-06-30T03:05:56.592Z,5.90
2023-06-30T03:08:25.071Z,6.20
2023-06-30T03:10:53.037Z,5.70
2023-06-30T03:13:20.914Z,5.60
2023-06-30T03:15:53.706Z,5.30
2023-06-30T03:20:54.954Z,5.70
2023-06-30T03:23:25.407Z,5.40
2023-06-30T03:25:56.118Z,5.60
2023-06-30T03:30:58.263Z,6.00
2023-06-30T03:33:27.589Z,5.40
2023-06-30T03:35:55.682Z,5.30
2023-06-30T03:38:28.976Z,5.40
2023-06-30T03:41:00.799Z,4.90
2023-06-30T03:43:38.944Z,4.80
2023-06-30T03:46:12.567Z,4.50
2023-06-30T03:48:44.615Z,5.00
2023-06-30T03:51:18.520Z,4.80
2023-06-30T03:53:54.787Z,5.10
2023-06-30T03:56:30.646Z,4.70
2023-06-30T03:59:01.990Z,4.80
2023-06-30T04:01:30.268Z,4.40
2023-06-30T04:04:04.787Z,4.20
2023-06-30T04:06:40.866Z,4.30
2023-06-30T04:09:23.471Z,4.70
2023-06-30T04:11:59.222Z,4.10
2023-06-30T04:14:35.402Z,4.70
2023-06-30T04:17:04.168Z,4.80
2023-06-30T04:19:35.044Z,4.30
2023-06-30T04:22:06.665Z,4.10
2023-06-30T04:24:36.994Z,4.10
2023-06-30T04:27:05.372Z,4.20
2023-06-30T04:29:40.529Z,4.10
2023-06-30T04:32:13.095Z,4.00
2023-06-30T04:34:43.744Z,4.20
2023-06-30T04:37:11.710Z,3.90
2023-06-30T04:39:49.396Z,4.20
2023-06-30T04:42:17.982Z,3.80
2023-06-30T04:44:47.187Z,3.90
2023-06-30T04:50:07.078Z,3.90
2023-06-30T04:52:41.705Z,4.20
2023-06-30T04:55:14.086Z,4.00
2023-06-30T05:05:22.461Z,4.10
2023-06-30T05:07:50.315Z,3.90
2023-06-30T05:10:18.209Z,4.00
2023-06-30T05:12:48.199Z,4.10
2023-06-30T05:15:16.085Z,4.30
2023-06-30T05:17:44.654Z,4.20
2023-06-30T05:20:13.673Z,4.10
2023-06-30T05:22:41.515Z,4.30
2023-06-30T05:25:09.892Z,4.10
2023-06-30T05:27:43.115Z,4.00
2023-06-30T05:30:22.641Z,3.90
2023-06-30T05:32:53.104Z,4.20
2023-06-30T05:35:21.027Z,4.00
2023-06-30T05:37:57.804Z,4.30
2023-06-30T05:40:27.359Z,4.30
2023-06-30T05:43:11.158Z,4.50
2023-06-30T05:45:40.551Z,4.10
2023-06-30T05:48:10.774Z,4.20
2023-06-30T05:50:41.486Z,3.90
2023-06-30T05:55:39.499Z,4.00
2023-06-30T05:58:13.205Z,3.70
2023-06-30T06:00:45.167Z,3.90
2023-06-30T06:03:18.422Z,3.80
2023-06-30T06:05:54.093Z,4.10
2023-06-30T06:08:25.565Z,3.80
2023-06-30T06:10:53.663Z,3.80
2023-06-30T06:13:47.626Z,3.80
2023-06-30T06:16:18.382Z,3.60
2023-06-30T06:18:47.964Z,3.80
2023-06-30T06:21:18.092Z,4.00
2023-06-30T06:23:45.959Z,3.80
2023-06-30T06:26:13.721Z,3.60
2023-06-30T06:28:41.591Z,3.50
2023-06-30T06:31:20.939Z,3.60
2023-06-30T06:33:48.999Z,3.50
2023-06-30T06:36:23.029Z,3.20
2023-06-30T06:38:55.093Z,3.50
2023-06-30T06:41:27.857Z,3.70
2023-06-30T06:46:26.318Z,3.40
2023-06-30T06:48:59.558Z,3.30
2023-06-30T06:51:35.008Z,3.50
2023-06-30T06:54:05.120Z,3.20
2023-06-30T06:56:33.088Z,3.40
2023-06-30T06:59:00.968Z,3.10
2023-06-30T07:01:38.080Z,3.70
2023-06-30T07:04:06.377Z,3.00
2023-06-30T07:06:34.594Z,3.20
2023-06-30T07:09:05.801Z,3.10
2023-06-30T07:11:37.262Z,3.10
2023-06-30T07:14:05.160Z,3.00
2023-06-30T07:16:38.083Z,3.00
2023-06-30T07:19:08.403Z,2.60
2023-06-30T07:21:36.369Z,3.20
2023-06-30T07:24:15.778Z,2.90
2023-06-30T07:26:50.509Z,2.70
2023-06-30T07:29:26.174Z,2.60
2023-06-30T07:31:59.319Z,2.40
2023-06-30T07:34:37.380Z,2.90
2023-06-30T07:37:07.769Z,2.70
2023-06-30T07:39:41.403Z,2.70
2023-06-30T07:42:12.542Z,2.90
2023-06-30T07:44:44.820Z,2.90
2023-06-30T07:47:15.125Z,2.90
2023-06-30T07:49:43.404Z,2.50
2023-06-30T07:52:18.135Z,2.70
2023-06-30T07:55:03.104Z,2.70
2023-06-30T07:57:44.451Z,2.70
2023-06-30T08:00:16.530Z,2.90
2023-06-30T08:02:47.037Z,2.70
2023-06-30T08:05:15.293Z,2.90
2023-06-30T08:07:51.347Z,3.20
2023-06-30T08:10:25.226Z,2.90
2023-06-30T08:12:58.423Z,2.90
2023-06-30T08:15:30.997Z,2.90
2023-06-30T08:20:31.088Z,2.80
2023-06-30T08:23:17.135Z,2.90
2023-06-30T08:25:45.264Z,2.70
2023-06-30T08:28:13.378Z,2.90
2023-06-30T08:30:41.293Z,2.90
2023-06-30T08:33:10.895Z,2.80
2023-06-30T08:35:55.616Z,2.70
2023-06-30T08:38:23.800Z,2.70
2023-06-30T08:40:54.749Z,2.80
2023-06-30T08:43:24.138Z,2.80
2023-06-30T08:46:03.733Z,2.80
2023-06-30T08:48:33.400Z,2.90
2023-06-30T08:51:04.949Z,2.80
2023-06-30T08:53:32.968Z,2.80
2023-06-30T08:56:05.924Z,3.20
2023-06-30T08:58:33.894Z,3.20
2023-06-30T09:01:02.937Z,2.80
2023-06-30T09:03:30.796Z,2.70
2023-06-30T09:06:03.324Z,2.70
2023-06-30T09:11:13.490Z,3.00
2023-06-30T09:13:44.326Z,3.00
2023-06-30T09:16:20.816Z,2.90
2023-06-30T09:18:51.942Z,2.80
2023-06-30T09:21:22.800Z,2.70
2023-06-30T09:23:56.176Z,3.10
2023-06-30T09:26:31.506Z,2.60
2023-06-30T09:29:00.616Z,2.80
2023-06-30T09:31:35.481Z,2.60
2023-06-30T09:34:14.282Z,2.60
2023-06-30T09:36:55.581Z,3.10
2023-06-30T09:39:26.410Z,2.90
2023-06-30T09:41:59.397Z,2.90
2023-06-30T09:44:29.090Z,2.90
2023-06-30T09:46:56.979Z,3.00
2023-06-30T09:49:31.918Z,2.80
2023-06-30T09:52:03.081Z,2.60
2023-06-30T09:57:06.560Z,3.10
2023-06-30T09:59:35.857Z,2.80
2023-06-30T10:02:11.728Z,2.70
2023-06-30T10:04:39.681Z,3.00
2023-06-30T10:07:07.592Z,2.80
2023-06-30T10:09:35.520Z,10.40
2023-06-30T10:12:06.530Z,2.70
2023-06-30T10:14:34.425Z,3.00
2023-06-30T10:17:03.546Z,2.70
2023-06-30T10:19:31.598Z,4.60
2023-06-30T10:21:59.801Z,6.00
2023-06-30T10:24:28.568Z,3.10
2023-06-30T10:26:59.716Z,2.80
2023-06-30T10:29:27.585Z,2.90
2023-06-30T10:32:02.301Z,3.00
2023-06-30T10:34:33.496Z,2.80
2023-06-30T10:37:02.142Z,4.40
2023-06-30T10:39:30.109Z,4.50
2023-06-30T10:42:01.481Z,4.20
2023-06-30T10:47:15.575Z,2.90
2023-06-30T10:49:43.494Z,2.80
2023-06-30T10:52:41.567Z,3.00
2023-06-30T10:55:10.260Z,3.00
2023-06-30T10:57:41.010Z,3.00
2023-06-30T11:00:13.337Z,3.00
2023-06-30T11:05:30.510Z,4.00
2023-06-30T11:08:08.716Z,3.20
2023-06-30T11:10:46.234Z,3.00
2023-06-30T11:13:14.487Z,3.20
2023-06-30T11:15:53.376Z,2.70
2023-06-30T11:18:27.400Z,2.60
2023-06-30T11:21:05.836Z,3.10
2023-06-30T11:23:41.103Z,3.60
2023-06-30T11:26:18.022Z,4.30
2023-06-30T11:28:52.389Z,4.40
2023-06-30T11:31:32.894Z,3.20
2023-06-30T11:34:03.252Z,3.20
2023-06-30T11:36:32.774Z,3.20
2023-06-30T11:39:01.998Z,3.60
2023-06-30T11:41:33.656Z,3.10
2023-06-30T11:44:01.502Z,3.30
2023-06-30T11:46:37.617Z,3.70
2023-06-30T11:49:05.736Z,3.40
2023-06-30T11:51:38.836Z,3.50
2023-06-30T11:54:08.044Z,3.50
2023-06-30T11:56:41.026Z,3.10
2023-06-30T11:59:08.881Z,3.30
2023-06-30T12:01:44.122Z,3.50
2023-06-30T12:04:17.234Z,3.50
2023-06-30T12:06:45.902Z,3.40
2023-06-30T12:09:13.781Z,4.70
2023-06-30T12:11:47.779Z,3.90
2023-06-30T12:14:22.924Z,3.40
2023-06-30T12:16:54.914Z,3.10
2023-06-30T12:19:29.632Z,3.10
2023-06-30T12:22:02.123Z,3.30
2023-06-30T12:24:36.274Z,3.10
2023-06-30T12:27:08.364Z,3.20
2023-06-30T12:29:37.998Z,3.30
2023-06-30T12:32:15.878Z,3.50
2023-06-30T12:34:47.689Z,4.00
2023-06-30T12:37:20.038Z,3.20
2023-06-30T12:39:56.287Z,3.40
2023-06-30T12:42:32.982Z,3.00
2023-06-30T12:45:05.300Z,3.40
2023-06-30T12:47:34.426Z,3.20
2023-06-30T12:50:04.550Z,3.30
2023-06-30T12:52:40.116Z,3.20
2023-06-30T12:55:13.807Z,3.20
2023-06-30T12:57:46.798Z,3.70
2023-06-30T13:00:16.393Z,3.60
2023-06-30T13:02:49.439Z,3.60
2023-06-30T13:05:24.331Z,3.60
2023-06-30T13:07:55.209Z,3.60
2023-06-30T13:10:34.705Z,3.50
2023-06-30T13:13:04.818Z,3.00
2023-06-30T13:15:47.474Z,3.70
2023-06-30T13:18:19.414Z,3.40
2023-06-30T13:20:50.027Z,3.90
2023-06-30T13:23:32.378Z,3.30
2023-06-30T13:26:09.726Z,3.50
2023-06-30T13:28:40.066Z,3.30
2023-06-30T13:31:13.002Z,3.20
2023-06-30T13:33:54.422Z,3.10
2023-06-30T13:36:29.376Z,3.20
2023-06-30T13:39:03.693Z,3.60
2023-06-30T13:41:38.829Z,3.40
2023-06-30T13:44:12.027Z,3.60
2023-06-30T13:46:44.907Z,3.30
2023-06-30T13:49:19.308Z,3.40
2023-06-30T13:51:59.572Z,3.00
2023-06-30T13:54:32.564Z,3.20
2023-06-30T13:57:15.608Z,3.30
2023-06-30T13:59:48.272Z,3.40
2023-06-30T14:02:22.553Z,3.50
2023-06-30T14:04:50.626Z,3.20
2023-06-30T14:07:35.021Z,2.90
2023-06-30T14:10:04.815Z,3.00
2023-06-30T14:12:43.080Z,2.90
2023-06-30T14:15:13.773Z,3.00
2023-06-30T14:17:46.609Z,2.80
2023-06-30T14:20:23.741Z,3.00
2023-06-30T14:22:56.519Z,2.60
2023-06-30T14:25:30.444Z,2.80
2023-06-30T14:27:58.426Z,2.90
2023-06-30T14:30:40.210Z,2.80
2023-06-30T14:33:08.091Z,3.10
2023-06-30T14:35:43.755Z,2.90
2023-06-30T14:38:12.810Z,3.20
2023-06-30T14:40:54.157Z,3.30
2023-06-30T14:43:27.910Z,3.00
2023-06-30T14:45:56.181Z,3.10
2023-06-30T14:48:25.795Z,3.60
2023-06-30T14:50:56.759Z,3.30
2023-06-30T14:53:32.585Z,3.00
2023-06-30T14:56:00.448Z,3.30
2023-06-30T14:58:31.188Z,3.10
2023-06-30T15:00:59.086Z,3.20
2023-06-30T15:03:36.206Z,3.10
2023-06-30T15:06:04.934Z,3.00
2023-06-30T15:08:36.712Z,3.10
2023-06-30T15:11:19.762Z,2.90
2023-06-30T15:13:55.178Z,3.00
2023-06-30T15:16:25.829Z,2.90
2023-06-30T15:19:01.336Z,3.20
2023-06-30T15:21:34.833Z,2.90
2023-06-30T15:24:02.808Z,2.90
2023-06-30T15:26:35.691Z,2.90
2023-06-30T15:29:12.495Z,2.60
2023-06-30T15:31:48.185Z,2.90
2023-06-30T15:34:23.258Z,2.80
2023-06-30T15:36:56.150Z,2.80
2023-06-30T15:39:34.476Z,2.90
2023-06-30T15:42:03.766Z,3.20
2023-06-30T15:44:43.812Z,2.80
2023-06-30T15:47:21.834Z,2.80
2023-06-30T15:49:54.501Z,2.80
2023-06-30T15:52:23.191Z,2.50
2023-06-30T15:55:14.720Z,2.50
2023-06-30T15:57:45.782Z,2.90
2023-06-30T16:00:15.409Z,2.90
2023-06-30T16:02:45.177Z,2.70
2023-06-30T16:05:16.071Z,2.80
2023-06-30T16:07:49.099Z,2.60
2023-06-30T16:10:17.279Z,2.80
2023-06-30T16:12:50.210Z,2.70
2023-06-30T16:15:21.000Z,2.60
2023-06-30T16:17:50.831Z,2.90
2023-06-30T16:20:18.784Z,2.70
2023-06-30T16:22:47.167Z,2.90
2023-06-30T16:25:15.238Z,3.00
2023-06-30T16:27:51.096Z,2.90
2023-06-30T16:30:31.252Z,2.80
2023-06-30T16:33:02.180Z,3.10
2023-06-30T16:35:36.010Z,3.10
2023-06-30T16:38:09.927Z,3.20
2023-06-30T16:40:40.769Z,3.30
2023-06-30T16:43:08.714Z,3.00
2023-06-30T16:45:36.812Z,3.40
2023-06-30T16:48:06.029Z,2.90
2023-06-30T16:50:35.000Z,3.20
2023-06-30T16:53:02.953Z,3.20
2023-06-30T16:55:37.270Z,3.00
2023-06-30T16:58:15.386Z,3.40
2023-06-30T17:01:01.748Z,4.00
2023-06-30T17:03:34.462Z,4.90
2023-06-30T17:07:23.860Z,5.30
2023-06-30T17:10:01.059Z,5.80
2023-06-30T17:12:40.279Z,6.00
2023-06-30T17:15:23.390Z,5.80
2023-06-30T17:20:19.433Z,6.10
2023-06-30T17:22:55.699Z,6.80
2023-06-30T17:25:53.599Z,6.50
2023-06-30T17:28:24.316Z,6.90
2023-06-30T17:31:03.042Z,6.40
2023-06-30T17:33:31.932Z,6.90
2023-06-30T17:36:12.819Z,6.40
2023-06-30T17:38:58.560Z,6.40
2023-06-30T17:41:34.019Z,6.50
2023-06-30T17:44:07.613Z,6.10
2023-06-30T17:46:48.351Z,6.40
2023-06-30T17:49:25.599Z,6.10
2023-06-30T17:51:54.103Z,5.90
2023-06-30T17:54:23.683Z,7.00
2023-06-30T17:56:57.171Z,6.00
2023-06-30T18:02:09.509Z,5.90
2023-06-30T18:04:48.944Z,6.60
2023-06-30T18:07:20.397Z,6.10
2023-06-30T18:09:56.247Z,6.20
2023-06-30T18:12:31.503Z,5.90
2023-06-30T18:15:11.157Z,6.10
2023-06-30T18:17:42.202Z,5.90
2023-06-30T18:20:27.751Z,5.40
2023-06-30T18:23:10.565Z,5.80
2023-06-30T18:25:58.017Z,5.40
2023-06-30T18:28:31.489Z,5.00
2023-06-30T18:31:10.112Z,5.00
2023-06-30T18:33:48.836Z,5.40
2023-06-30T18:36:16.806Z,5.10
2023-06-30T18:38:51.737Z,4.80
2023-06-30T18:41:25.132Z,5.10
2023-06-30T18:44:10.936Z,4.60
2023-06-30T18:46:42.143Z,4.70
2023-06-30T18:49:13.185Z,5.00
2023-06-30T18:51:45.339Z,4.80
2023-06-30T18:54:14.495Z,5.00
2023-06-30T18:56:57.503Z,4.80
2023-06-30T18:59:40.113Z,5.10
2023-06-30T19:02:15.020Z,5.10
2023-06-30T19:04:50.970Z,4.90
2023-06-30T19:07:23.910Z,5.00
2023-06-30T19:09:52.900Z,4.90
2023-06-30T19:12:25.691Z,5.30
2023-06-30T19:15:05.013Z,5.20
2023-06-30T19:17:38.339Z,4.90
2023-06-30T19:20:14.470Z,5.70
2023-06-30T19:22:48.400Z,5.70
2023-06-30T19:25:20.345Z,5.80
2023-06-30T19:27:50.797Z,5.80
2023-06-30T19:30:44.459Z,5.50
2023-06-30T19:33:30.447Z,5.50
2023-06-30T19:35:59.153Z,5.10
2023-06-30T19:38:32.127Z,5.10
2023-06-30T19:46:32.750Z,4.50
2023-06-30T19:49:03.551Z,5.20
2023-06-30T19:51:31.926Z,5.90
2023-06-30T19:54:07.197Z,5.50
2023-06-30T19:56:39.698Z,5.40
2023-06-30T19:59:14.860Z,5.30
2023-06-30T20:01:46.558Z,5.30
2023-06-30T20:04:14.560Z,5.00
2023-06-30T20:06:42.563Z,5.20
2023-06-30T20:09:16.269Z,5.40
2023-06-30T20:11:48.672Z,4.90
2023-06-30T20:14:21.426Z,5.30
2023-06-30T20:16:49.828Z,4.80
2023-06-30T20:19:18.315Z,5.00
2023-06-30T20:21:51.318Z,4.70
2023-06-30T20:27:08.533Z,4.70
2023-06-30T20:29:41.601Z,5.10
2023-06-30T20:34:43.941Z,4.60
2023-06-30T20:37:12.069Z,5.20
2023-06-30T20:40:14.139Z,5.20
2023-06-30T20:42:48.470Z,5.20
2023-06-30T20:45:21.370Z,5.10
2023-06-30T20:50:20.560Z,4.80
2023-06-30T20:52:54.674Z,4.60
2023-06-30T20:55:26.653Z,4.80
2023-06-30T20:58:02.115Z,5.00
2023-06-30T21:00:35.005Z,4.90
2023-06-30T21:03:03.005Z,4.90
2023-06-30T21:05:33.682Z,4.90
2023-06-30T21:08:04.212Z,4.70
2023-06-30T21:10:37.703Z,4.60
2023-06-30T21:13:12.437Z,4.20
2023-06-30T21:16:00.821Z,4.10
2023-06-30T21:18:36.252Z,4.10
2023-06-30T21:21:04.203Z,4.10
2023-06-30T21:23:32.072Z,4.10
2023-06-30T21:26:08.550Z,4.30
2023-06-30T21:28:37.024Z,4.00
2023-06-30T21:31:07.341Z,4.00
2023-06-30T21:33:42.594Z,3.90
2023-06-30T21:36:17.631Z,4.00
2023-06-30T21:38:45.590Z,3.90
2023-06-30T21:41:15.401Z,3.80
2023-06-30T21:43:43.684Z,4.50
2023-06-30T21:46:17.273Z,4.20
2023-06-30T21:49:00.098Z,4.40
2023-06-30T21:51:28.379Z,4.10
2023-06-30T21:53:57.486Z,4.20
2023-06-30T21:56:27.806Z,4.50
2023-06-30T21:58:58.126Z,4.20
2023-06-30T22:01:35.906Z,4.20
2023-06-30T22:04:14.738Z,4.40
2023-06-30T22:07:03.717Z,4.30
2023-06-30T22:09:40.712Z,4.50
2023-06-30T22:12:09.176Z,4.10
2023-06-30T22:14:43.908Z,4.20
2023-06-30T22:17:16.793Z,3.90
2023-06-30T22:19:50.515Z,4.20
2023-06-30T22:22:33.527Z,4.20
2023-06-30T22:25:07.193Z,4.00
2023-06-30T22:27:35.960Z,3.90
2023-06-30T22:30:11.702Z,4.20
2023-06-30T22:32:45.618Z,4.10
2023-06-30T22:35:13.658Z,3.90
2023-06-30T22:37:41.621Z,4.10
2023-06-30T22:40:10.126Z,4.40
2023-06-30T22:42:44.768Z,4.10
2023-06-30T22:45:17.611Z,4.10
2023-06-30T22:47:59.529Z,4.40
2023-06-30T22:50:32.634Z,4.00
2023-06-30T22:53:05.813Z,4.50
2023-06-30T22:58:09.112Z,3.70
2023-06-30T23:03:31.282Z,4.30
2023-06-30T23:06:02.004Z,4.50
2023-06-30T23:08:35.012Z,4.20
2023-06-30T23:13:41.164Z,4.40
2023-06-30T23:16:23.471Z,4.90
2023-06-30T23:19:03.135Z,4.80
2023-06-30T23:21:34.262Z,4.80
2023-06-30T23:24:24.166Z,4.80
2023-06-30T23:27:04.303Z,4.60
2023-06-30T23:29:39.470Z,5.10
2023-06-30T23:32:17.365Z,4.70
2023-06-30T23:34:45.515Z,4.70
2023-06-30T23:37:18.558Z,4.50
2023-06-30T23:39:49.495Z,4.30
2023-06-30T23:42:25.812Z,5.10
2023-06-30T23:44:53.782Z,5.30
2023-06-30T23:47:22.393Z,4.40
2023-06-30T23:49:55.053Z,4.80
2023-06-30T23:52:25.887Z,4.60
2023-06-30T23:55:09.422Z,4.70
2023-06-30T23:57:51.754Z,4.50
